< < Back
Terminal Aerodrome Forecast


Current Version              Previous Versions:   1  2  3  4  5  6  7  8  9  

Terminal Aerodrome Forecast

407
FTUS42 KGSP 280500 AAA
TAFHKY
TAF AMD
KHKY 280524Z 2805/2824 26009KT P6SM VCTS BKN060CB
      TEMPO 2805/2807 6SM TSRA BKN040CB
     FM280900 27006KT P6SM BKN060 BKN250
     FM281400 28010KT P6SM BKN250
     FM282000 31012G20KT P6SM SCT180=

Latest METAR

333
SAUS70 KWBC 291100
MTRHKY
METAR KHKY 291053Z AUTO 32004KT 10SM CLR 17/13 A2997 RMK AO2 SLP129
T01720128


USA.gov is the U.S. government's official web portal to all federal, state and local government web resources and services.